Time;durP1;ratioP1;P1;durP2;ratioP2;P2;SDS_P1;SDS_P2;PMS_P1;PMS_P2;Temp;Humidity;BMP_temperature;BMP_pressure;BME280_temperature;BME280_humidity;BME280_pressure;Samples;Min_cycle;Max_cycle;Signal;HPM_P1;HPM_P2
2022/04/15 00:01:03;;;;;;;6.60;2.97;;;8.90;99.90;;;;;;4998167;28;21157;-62
2022/04/15 00:03:30;;;;;;;5.30;3.60;;;8.90;99.90;;;;;;4995780;28;20245;-63
2022/04/15 00:05:57;;;;;;;3.83;3.00;;;8.90;99.90;;;;;;4996728;28;20228;-62
2022/04/15 00:08:24;;;;;;;6.87;3.50;;;9.00;99.90;;;;;;5010245;28;20202;-63
2022/04/15 00:10:53;;;;;;;6.30;3.20;;;9.00;99.90;;;;;;5002880;28;20214;-63
2022/04/15 00:13:24;;;;;;;3.90;2.73;;;8.90;99.90;;;;;;5010746;28;20199;-63
2022/04/15 00:15:51;;;;;;;6.37;3.40;;;8.90;99.90;;;;;;5008389;28;20230;-63
2022/04/15 00:18:18;;;;;;;4.13;3.47;;;8.90;99.90;;;;;;5008883;28;20204;-63
2022/04/15 00:20:45;;;;;;;6.10;3.27;;;8.90;99.90;;;;;;4983535;28;20212;-64
2022/04/15 00:23:11;;;;;;;5.60;3.50;;;8.90;99.90;;;;;;5010669;28;20870;-63
2022/04/15 00:25:38;;;;;;;4.83;3.57;;;8.90;99.90;;;;;;5000533;28;20865;-62
2022/04/15 00:28:06;;;;;;;5.87;3.50;;;9.00;99.90;;;;;;5011523;28;20198;-63
2022/04/15 00:30:34;;;;;;;7.13;3.70;;;9.00;99.90;;;;;;5008905;28;20202;-63
2022/04/15 00:33:00;;;;;;;6.70;4.57;;;8.90;99.90;;;;;;5015411;28;20201;-61
2022/04/15 00:35:27;;;;;;;9.70;6.50;;;8.90;99.90;;;;;;4987634;28;20233;-63
2022/04/15 00:37:54;;;;;;;10.67;7.17;;;8.90;99.90;;;;;;5011518;28;20235;-63
2022/04/15 00:40:21;;;;;;;16.37;8.07;;;8.90;99.90;;;;;;4995990;28;20206;-63
2022/04/15 00:42:49;;;;;;;14.43;9.37;;;8.90;99.90;;;;;;5012062;28;20224;-63
2022/04/15 00:45:17;;;;;;;11.93;7.73;;;8.80;99.90;;;;;;5009877;28;20632;-62
2022/04/15 00:47:51;;;;;;;11.87;7.53;;;8.80;99.90;;;;;;5012333;28;20225;-63
2022/04/15 00:50:18;;;;;;;12.07;7.07;;;8.80;99.90;;;;;;5004208;28;20710;-63
2022/04/15 00:52:48;;;;;;;13.50;7.00;;;8.70;99.90;;;;;;4985068;28;20301;-63
2022/04/15 00:55:17;;;;;;;9.93;7.23;;;8.70;99.90;;;;;;5007666;28;20230;-62
2022/04/15 00:57:47;;;;;;;10.33;7.43;;;8.60;99.90;;;;;;5001745;28;20200;-63
2022/04/15 01:00:15;;;;;;;15.63;7.60;;;8.70;99.90;;;;;;5013705;28;20205;-62
2022/04/15 01:02:45;;;;;;;11.17;7.03;;;8.60;99.90;;;;;;5008369;28;20240;-63
2022/04/15 01:05:14;;;;;;;8.77;6.93;;;8.60;99.90;;;;;;5007648;28;20216;-63
2022/04/15 01:07:43;;;;;;;9.50;6.30;;;8.60;99.90;;;;;;4981170;28;20276;-63
2022/04/15 01:10:12;;;;;;;9.47;6.03;;;8.60;99.90;;;;;;5009601;28;20580;-63
2022/04/15 01:12:40;;;;;;;12.20;6.43;;;8.60;99.90;;;;;;4996190;28;20198;-63
2022/04/15 01:15:09;;;;;;;8.83;6.43;;;8.60;99.90;;;;;;5012366;28;20222;-63
2022/04/15 01:17:37;;;;;;;11.57;6.20;;;8.60;99.90;;;;;;5011715;28;20310;-63
2022/04/15 01:20:07;;;;;;;12.33;5.30;;;8.60;99.90;;;;;;5011202;28;20755;-63
2022/04/15 01:22:39;;;;;;;6.57;5.40;;;8.50;99.90;;;;;;4987052;28;20206;-63
2022/04/15 01:25:09;;;;;;;7.77;4.63;;;8.50;99.90;;;;;;5014941;28;20213;-63
2022/04/15 01:27:38;;;;;;;6.00;5.03;;;8.50;99.90;;;;;;5003444;28;20764;-62
2022/04/15 01:30:08;;;;;;;8.10;5.57;;;8.40;99.90;;;;;;5040217;28;20520;-63
2022/04/15 01:32:35;;;;;;;7.13;5.17;;;8.30;99.90;;;;;;5005978;28;20212;-63
2022/04/15 01:35:02;;;;;;;6.63;5.00;;;8.30;99.90;;;;;;5012974;28;20224;-62
2022/04/15 01:37:31;;;;;;;8.77;6.03;;;8.30;99.90;;;;;;4999642;28;20199;-63
2022/04/15 01:39:58;;;;;;;10.27;6.53;;;8.30;99.90;;;;;;4999863;28;20687;-63
2022/04/15 01:42:27;;;;;;;9.00;5.93;;;8.20;99.90;;;;;;4997418;28;20758;-62
2022/04/15 01:44:54;;;;;;;7.20;5.57;;;8.30;99.90;;;;;;5001527;28;20624;-62
2022/04/15 01:47:21;;;;;;;8.50;6.40;;;8.30;99.90;;;;;;5011315;28;20223;-62
2022/04/15 01:49:48;;;;;;;11.37;7.37;;;8.30;99.90;;;;;;5011408;28;20189;-63
2022/04/15 01:52:15;;;;;;;14.33;7.87;;;8.30;99.90;;;;;;5009765;28;20208;-62
2022/04/15 01:54:42;;;;;;;9.07;7.13;;;8.30;99.90;;;;;;4986401;28;20761;-62
2022/04/15 01:57:11;;;;;;;12.60;6.80;;;8.30;99.90;;;;;;5001151;28;20296;-62
2022/04/15 01:59:39;;;;;;;8.30;6.77;;;8.30;99.90;;;;;;4999157;28;20716;-62
2022/04/15 02:02:06;;;;;;;7.43;5.90;;;8.30;99.90;;;;;;5007509;28;20282;-63
2022/04/15 02:04:34;;;;;;;9.50;6.37;;;8.20;99.90;;;;;;5007838;28;20224;-63
2022/04/15 02:07:01;;;;;;;12.20;5.90;;;8.30;99.90;;;;;;5004918;28;20206;-62
2022/04/15 02:09:29;;;;;;;10.13;5.87;;;8.30;99.90;;;;;;4982283;28;20219;-63
2022/04/15 02:11:55;;;;;;;7.90;6.60;;;8.30;99.90;;;;;;4995595;28;21076;-62
2022/04/15 02:14:23;;;;;;;10.57;6.67;;;8.30;99.90;;;;;;5001213;28;20232;-64
2022/04/15 02:16:53;;;;;;;9.33;6.33;;;8.30;99.90;;;;;;5010566;28;20725;-62
2022/04/15 02:19:20;;;;;;;11.03;7.40;;;8.30;99.90;;;;;;5014780;28;20204;-62
2022/04/15 02:21:48;;;;;;;8.97;6.53;;;8.20;99.90;;;;;;5013471;28;20702;-62
2022/04/15 02:24:15;;;;;;;8.37;5.67;;;8.20;99.90;;;;;;4994476;28;20220;-62
2022/04/15 02:26:44;;;;;;;8.27;5.00;;;8.20;99.90;;;;;;4998095;28;20903;-63
2022/04/15 02:29:11;;;;;;;12.43;5.57;;;8.20;99.90;;;;;;4995335;28;21576;-62
2022/04/15 02:31:38;;;;;;;9.43;4.97;;;8.20;99.90;;;;;;5013561;28;20203;-63
2022/04/15 02:34:06;;;;;;;7.40;4.53;;;8.20;99.90;;;;;;5007700;28;20304;-62
2022/04/15 02:36:33;;;;;;;11.10;4.80;;;8.10;99.90;;;;;;5011099;28;20232;-62
2022/04/15 02:39:00;;;;;;;7.13;4.30;;;8.10;99.90;;;;;;4997842;28;21842;-63
2022/04/15 02:41:27;;;;;;;8.93;5.00;;;8.10;99.90;;;;;;5000977;28;20906;-62
2022/04/15 02:43:55;;;;;;;8.10;4.90;;;8.10;99.90;;;;;;4992356;28;20348;-62
2022/04/15 02:46:21;;;;;;;7.07;5.00;;;8.10;99.90;;;;;;5007693;28;20933;-62
2022/04/15 02:48:48;;;;;;;10.03;5.10;;;8.10;99.90;;;;;;5010350;28;20563;-62
2022/04/15 02:51:17;;;;;;;10.23;5.10;;;8.10;99.90;;;;;;5013025;28;20212;-62
2022/04/15 02:53:45;;;;;;;11.70;5.10;;;8.00;99.90;;;;;;5003311;28;20202;-63
2022/04/15 02:56:12;;;;;;;7.37;5.03;;;8.10;99.90;;;;;;4996120;28;20988;-62
2022/04/15 02:58:39;;;;;;;8.40;5.07;;;8.10;99.90;;;;;;5002985;28;20626;-63
2022/04/15 03:01:06;;;;;;;7.30;5.20;;;8.10;99.90;;;;;;4999789;28;20617;-63
2022/04/15 03:03:34;;;;;;;7.63;5.10;;;8.20;99.90;;;;;;5015971;28;20203;-62
2022/04/15 03:06:02;;;;;;;7.77;4.57;;;8.10;99.90;;;;;;5009158;28;20302;-63
2022/04/15 03:08:31;;;;;;;9.63;4.40;;;8.10;99.90;;;;;;5010913;28;20249;-62
2022/04/15 03:11:00;;;;;;;9.83;5.03;;;8.10;99.90;;;;;;4991688;28;20485;-62
2022/04/15 03:13:27;;;;;;;8.53;5.23;;;8.10;99.90;;;;;;4988917;28;20206;-64
2022/04/15 03:15:54;;;;;;;7.93;5.00;;;8.20;99.90;;;;;;5001312;28;20227;-62
2022/04/15 03:18:21;;;;;;;5.20;4.40;;;8.10;99.90;;;;;;5011706;28;20199;-63
2022/04/15 03:20:48;;;;;;;6.57;4.97;;;8.20;99.90;;;;;;5014185;28;20198;-62
2022/04/15 03:23:15;;;;;;;7.00;5.03;;;8.30;99.90;;;;;;5004917;28;20998;-62
2022/04/15 03:25:43;;;;;;;10.23;5.63;;;8.30;99.90;;;;;;4994935;28;20327;-63
2022/04/15 03:28:10;;;;;;;6.90;4.97;;;8.30;99.90;;;;;;4990272;28;20207;-63
2022/04/15 03:30:37;;;;;;;9.97;5.33;;;8.30;99.90;;;;;;4999445;28;20285;-65
2022/04/15 03:33:04;;;;;;;9.77;5.63;;;8.20;99.90;;;;;;5011323;28;20291;-62
2022/04/15 03:35:31;;;;;;;13.63;6.10;;;8.30;99.90;;;;;;5007747;28;20792;-62
2022/04/15 03:37:58;;;;;;;8.60;5.50;;;8.30;99.90;;;;;;5009788;28;20205;-62
2022/04/15 03:40:25;;;;;;;9.73;6.37;;;8.30;99.90;;;;;;4998469;28;21166;-62
2022/04/15 03:42:56;;;;;;;13.83;6.00;;;8.30;99.90;;;;;;5012522;28;20205;-62
2022/04/15 03:45:23;;;;;;;9.37;6.07;;;8.30;99.90;;;;;;4979503;28;20285;-63
2022/04/15 03:47:51;;;;;;;9.13;5.70;;;8.30;99.90;;;;;;5010366;28;20221;-63
2022/04/15 03:50:18;;;;;;;8.00;6.10;;;8.30;99.90;;;;;;5008607;28;20321;-62
2022/04/15 03:52:47;;;;;;;7.97;5.60;;;8.20;99.90;;;;;;5015130;28;20204;-63
2022/04/15 03:55:15;;;;;;;11.80;6.10;;;8.20;99.90;;;;;;4998111;28;20254;-63
2022/04/15 03:57:43;;;;;;;11.17;5.37;;;8.30;99.90;;;;;;5011390;28;20322;-62
2022/04/15 04:00:14;;;;;;;13.47;5.87;;;8.30;99.90;;;;;;4991760;28;20211;-63
2022/04/15 04:02:43;;;;;;;8.77;5.83;;;8.30;99.90;;;;;;5010546;28;20663;-62
2022/04/15 04:05:11;;;;;;;11.50;5.80;;;8.20;99.90;;;;;;5014005;28;20196;-63
2022/04/15 04:07:38;;;;;;;12.77;5.97;;;8.30;99.90;;;;;;5013284;28;20997;-63
2022/04/15 04:10:06;;;;;;;7.83;5.17;;;8.30;99.90;;;;;;5016663;28;20201;-63
2022/04/15 04:12:34;;;;;;;10.43;5.90;;;8.30;99.90;;;;;;5028058;28;20212;-62
2022/04/15 04:15:02;;;;;;;12.73;6.23;;;8.30;99.90;;;;;;5014117;28;20219;-62
2022/04/15 04:17:30;;;;;;;9.83;5.47;;;8.30;99.90;;;;;;4991732;28;20229;-63
2022/04/15 04:19:57;;;;;;;12.23;5.97;;;8.30;99.90;;;;;;5015196;28;20203;-62
2022/04/15 04:22:29;;;;;;;10.97;5.93;;;8.30;99.90;;;;;;5007274;28;20299;-62
2022/04/15 04:24:56;;;;;;;8.60;5.87;;;8.30;99.90;;;;;;5008858;28;20878;-62
2022/04/15 04:27:23;;;;;;;11.37;7.20;;;8.30;99.90;;;;;;4994470;28;20315;-62
2022/04/15 04:29:50;;;;;;;9.53;5.77;;;8.30;99.90;;;;;;5010878;28;20199;-62
2022/04/15 04:32:18;;;;;;;9.10;5.83;;;8.30;99.90;;;;;;4984638;28;20205;-64
2022/04/15 04:34:48;;;;;;;10.47;6.40;;;8.30;99.90;;;;;;5009720;28;20194;-63
2022/04/15 04:37:15;;;;;;;11.93;6.00;;;8.30;99.90;;;;;;5010366;28;20273;-63
2022/04/15 04:39:42;;;;;;;9.60;6.63;;;8.30;99.90;;;;;;5012605;28;20228;-62
2022/04/15 04:42:10;;;;;;;14.43;6.43;;;8.20;99.90;;;;;;5001160;28;20878;-63
2022/04/15 04:44:42;;;;;;;9.37;6.00;;;8.20;99.90;;;;;;5005815;28;20208;-63
2022/04/15 04:47:10;;;;;;;13.03;6.87;;;8.30;99.90;;;;;;5002810;28;20200;-63
2022/04/15 04:49:38;;;;;;;15.43;7.20;;;8.30;99.90;;;;;;4992199;28;20297;-63
2022/04/15 04:52:07;;;;;;;9.20;6.23;;;8.30;99.90;;;;;;5012009;28;20272;-62
2022/04/15 04:54:35;;;;;;;10.37;6.53;;;8.30;99.90;;;;;;5006246;28;20223;-63
2022/04/15 04:57:02;;;;;;;14.63;7.33;;;8.30;99.90;;;;;;5005672;28;20231;-63
2022/04/15 04:59:31;;;;;;;14.90;7.83;;;8.30;99.90;;;;;;5000518;28;20444;-62
2022/04/15 05:01:58;;;;;;;16.23;8.03;;;8.30;99.90;;;;;;5009989;28;20228;-62
2022/04/15 05:04:25;;;;;;;10.37;6.83;;;8.40;99.90;;;;;;4980021;28;21502;-63
2022/04/15 05:06:52;;;;;;;14.10;7.60;;;8.40;99.90;;;;;;5010546;28;20212;-63
2022/04/15 05:09:20;;;;;;;11.97;7.93;;;8.40;99.90;;;;;;4997079;28;20207;-63
2022/04/15 05:11:47;;;;;;;14.83;7.93;;;8.40;99.90;;;;;;5009536;28;20197;-62
2022/04/15 05:14:17;;;;;;;12.23;7.63;;;8.40;99.90;;;;;;4993049;28;20582;-64
2022/04/15 05:16:44;;;;;;;10.90;7.97;;;8.40;99.90;;;;;;5008930;28;20347;-63
2022/04/15 05:19:11;;;;;;;14.17;7.90;;;8.40;99.90;;;;;;4999671;28;20198;-62
2022/04/15 05:21:38;;;;;;;14.60;8.50;;;8.40;99.90;;;;;;5002408;28;20303;-63
2022/04/15 05:24:06;;;;;;;17.67;8.60;;;8.50;99.90;;;;;;5008150;28;20197;-63
2022/04/15 05:26:35;;;;;;;25.53;10.80;;;8.40;99.90;;;;;;5000899;28;20216;-63
2022/04/15 05:29:02;;;;;;;25.87;11.87;;;8.40;99.90;;;;;;4997543;28;21014;-62
2022/04/15 05:31:29;;;;;;;23.87;11.07;;;8.40;99.90;;;;;;5008141;28;20359;-62
2022/04/15 05:33:56;;;;;;;21.17;10.77;;;8.40;99.90;;;;;;5005871;28;20200;-64
2022/04/15 05:36:23;;;;;;;18.40;10.27;;;8.40;99.90;;;;;;4991926;28;20230;-62
2022/04/15 05:38:50;;;;;;;20.07;9.97;;;8.40;99.90;;;;;;5011734;28;20203;-63
2022/04/15 05:41:17;;;;;;;20.43;10.27;;;8.30;99.90;;;;;;4996853;28;20217;-63
2022/04/15 05:43:46;;;;;;;20.17;10.07;;;8.30;99.90;;;;;;5007703;28;20206;-63
2022/04/15 05:46:13;;;;;;;15.03;8.67;;;8.20;99.90;;;;;;4989839;28;20221;-63
2022/04/15 05:48:40;;;;;;;20.53;9.57;;;8.20;99.90;;;;;;5010434;28;20287;-63
2022/04/15 05:51:07;;;;;;;18.50;8.93;;;8.10;99.90;;;;;;5004680;28;20929;-63
2022/04/15 05:53:34;;;;;;;20.83;9.03;;;8.10;99.90;;;;;;4987666;28;20387;-63
2022/04/15 05:56:01;;;;;;;13.20;8.80;;;8.10;99.90;;;;;;5000025;28;20206;-62
2022/04/15 05:58:29;;;;;;;12.37;8.30;;;8.00;99.90;;;;;;5001942;28;20846;-62
2022/04/15 06:00:57;;;;;;;16.23;9.47;;;7.90;99.90;;;;;;4993248;28;20225;-63
2022/04/15 06:03:24;;;;;;;15.00;9.20;;;7.80;99.90;;;;;;5014422;28;20206;-63
2022/04/15 06:05:51;;;;;;;22.67;9.47;;;7.90;99.90;;;;;;5016631;28;20204;-62
2022/04/15 06:08:18;;;;;;;21.57;8.93;;;7.80;99.90;;;;;;4997059;28;20203;-62
2022/04/15 06:10:45;;;;;;;18.57;9.90;;;7.80;99.90;;;;;;5003355;28;20280;-62
2022/04/15 06:13:14;;;;;;;21.83;10.50;;;7.70;99.90;;;;;;5003295;28;20214;-62
2022/04/15 06:15:51;;;;;;;16.07;10.50;;;7.70;99.90;;;;;;4991697;28;20272;-63
2022/04/15 06:18:20;;;;;;;16.37;9.80;;;7.80;99.90;;;;;;5011698;28;20236;-63
2022/04/15 06:20:47;;;;;;;24.33;10.47;;;7.90;99.90;;;;;;5011528;28;20207;-63
2022/04/15 06:23:15;;;;;;;17.87;10.00;;;7.90;99.90;;;;;;4996129;28;20600;-62
2022/04/15 06:25:41;;;;;;;18.23;9.60;;;7.80;99.90;;;;;;5012263;28;20293;-62
2022/04/15 06:28:09;;;;;;;21.10;9.57;;;7.70;99.90;;;;;;4991851;28;20213;-63
2022/04/15 06:30:36;;;;;;;17.43;9.97;;;7.80;99.90;;;;;;4995366;28;20214;-63
2022/04/15 06:33:05;;;;;;;21.13;9.93;;;7.80;99.90;;;;;;5011305;28;20870;-62
2022/04/15 06:35:34;;;;;;;18.83;10.93;;;7.80;99.90;;;;;;5012969;28;20211;-63
2022/04/15 06:38:01;;;;;;;20.87;10.43;;;7.80;99.90;;;;;;4998659;28;20234;-63
2022/04/15 06:40:28;;;;;;;21.57;10.37;;;7.80;99.90;;;;;;5016713;28;20199;-62
2022/04/15 06:42:55;;;;;;;19.73;10.80;;;7.80;99.90;;;;;;5000345;28;20607;-63
2022/04/15 06:45:22;;;;;;;15.80;9.37;;;7.70;99.90;;;;;;4997842;28;20647;-62
2022/04/15 06:47:49;;;;;;;20.70;10.67;;;7.80;99.90;;;;;;5006486;28;20221;-62
2022/04/15 06:50:17;;;;;;;18.43;10.43;;;7.80;99.90;;;;;;4997544;28;20236;-63
2022/04/15 06:52:46;;;;;;;20.43;10.57;;;7.80;99.90;;;;;;5000357;28;20340;-62
2022/04/15 06:55:14;;;;;;;19.33;10.27;;;7.80;99.90;;;;;;5006900;28;20263;-63
2022/04/15 06:57:42;;;;;;;21.23;10.27;;;7.80;99.90;;;;;;5029282;28;20225;-62
2022/04/15 07:00:13;;;;;;;18.97;9.67;;;7.80;99.90;;;;;;5020538;28;20250;-63
2022/04/15 07:02:41;;;;;;;16.87;9.93;;;7.80;99.90;;;;;;4994860;28;20222;-63
2022/04/15 07:05:09;;;;;;;16.83;10.07;;;7.90;99.90;;;;;;5010665;28;20214;-63
2022/04/15 07:07:36;;;;;;;19.73;9.10;;;7.90;99.90;;;;;;5008627;28;20221;-63
2022/04/15 07:10:06;;;;;;;18.63;10.40;;;7.80;99.90;;;;;;4995684;28;20210;-62
2022/04/15 07:12:33;;;;;;;25.50;9.60;;;7.80;99.90;;;;;;5001330;28;20330;-63
2022/04/15 07:15:00;;;;;;;25.73;9.40;;;7.90;99.90;;;;;;4989625;28;20231;-63
2022/04/15 07:17:27;;;;;;;14.23;9.37;;;7.90;99.90;;;;;;4993095;28;20227;-63
2022/04/15 07:19:54;;;;;;;13.53;8.63;;;7.90;99.90;;;;;;5012023;28;20557;-63
2022/04/15 07:22:21;;;;;;;18.23;9.37;;;7.90;99.90;;;;;;5010587;28;20301;-63
2022/04/15 07:24:50;;;;;;;18.17;9.57;;;8.00;99.90;;;;;;4995261;28;20576;-63
2022/04/15 07:27:18;;;;;;;15.83;9.40;;;8.00;99.90;;;;;;5015764;28;20201;-63
2022/04/15 07:29:45;;;;;;;18.07;9.67;;;7.90;99.90;;;;;;4985323;28;20200;-63
2022/04/15 07:32:13;;;;;;;18.37;9.67;;;8.00;99.90;;;;;;4983172;28;21033;-63
2022/04/15 07:34:40;;;;;;;20.50;10.10;;;8.00;99.90;;;;;;5010078;28;20196;-62
2022/04/15 07:37:07;;;;;;;18.17;9.73;;;8.00;99.90;;;;;;5001918;28;20764;-63
2022/04/15 07:39:34;;;;;;;16.57;9.53;;;7.90;99.90;;;;;;5002647;28;26337;-62
2022/04/15 07:42:01;;;;;;;16.53;10.07;;;7.90;99.90;;;;;;5007851;28;20734;-63
2022/04/15 07:44:30;;;;;;;16.77;9.97;;;7.80;99.90;;;;;;4992096;28;20206;-62
2022/04/15 07:46:57;;;;;;;19.13;11.13;;;7.80;99.90;;;;;;5000356;28;20265;-63
2022/04/15 07:49:26;;;;;;;17.83;11.30;;;7.80;99.90;;;;;;4990265;28;20208;-62
2022/04/15 07:51:53;;;;;;;19.20;10.53;;;7.80;99.90;;;;;;4996960;28;20730;-63
2022/04/15 07:54:20;;;;;;;15.40;10.07;;;7.90;99.90;;;;;;5008716;28;20257;-62
2022/04/15 07:56:47;;;;;;;21.83;10.60;;;7.80;99.90;;;;;;4996199;28;20234;-63
2022/04/15 07:59:13;;;;;;;19.67;10.27;;;7.90;99.90;;;;;;5014797;28;20200;-63
2022/04/15 08:01:42;;;;;;;24.37;11.23;;;7.90;99.90;;;;;;4989172;28;20217;-63
2022/04/15 08:04:09;;;;;;;16.17;10.47;;;7.90;99.90;;;;;;4982402;28;20207;-62
2022/04/15 08:06:36;;;;;;;18.30;10.67;;;7.90;99.90;;;;;;5007321;28;20298;-62
2022/04/15 08:09:03;;;;;;;17.53;10.03;;;7.90;99.90;;;;;;5001523;28;20233;-63
2022/04/15 08:11:30;;;;;;;18.77;10.40;;;7.90;99.90;;;;;;4998787;28;20215;-63
2022/04/15 08:13:58;;;;;;;15.00;10.60;;;7.90;99.90;;;;;;5010640;28;20206;-63
2022/04/15 08:16:25;;;;;;;17.50;10.53;;;7.80;99.90;;;;;;4984258;28;20224;-62
2022/04/15 08:18:55;;;;;;;22.40;9.97;;;7.80;99.90;;;;;;4995335;28;21058;-63
2022/04/15 08:21:22;;;;;;;21.97;11.77;;;7.90;99.90;;;;;;4998003;28;20217;-62
2022/04/15 08:23:49;;;;;;;23.23;10.53;;;7.90;99.90;;;;;;4995531;28;20328;-63
2022/04/15 08:26:16;;;;;;;19.87;11.13;;;8.00;99.90;;;;;;4998570;28;20221;-63
2022/04/15 08:28:43;;;;;;;16.40;9.70;;;8.10;99.90;;;;;;4995518;28;20220;-63
2022/04/15 08:31:10;;;;;;;22.63;11.10;;;8.10;99.90;;;;;;4989598;28;20233;-63
2022/04/15 08:33:37;;;;;;;18.63;10.60;;;8.10;99.90;;;;;;5013631;28;20198;-62
2022/04/15 08:36:06;;;;;;;18.83;10.00;;;8.10;99.90;;;;;;4984968;28;21175;-63
2022/04/15 08:38:32;;;;;;;21.33;9.60;;;8.00;99.90;;;;;;4989049;28;20629;-63
2022/04/15 08:41:01;;;;;;;21.03;11.60;;;8.00;99.90;;;;;;4997268;28;20287;-63
2022/04/15 08:43:30;;;;;;;21.10;10.67;;;8.10;99.90;;;;;;4992509;28;20205;-63
2022/04/15 08:45:57;;;;;;;21.03;11.30;;;8.10;99.90;;;;;;4998196;28;20215;-63
2022/04/15 08:48:27;;;;;;;20.13;10.67;;;8.10;99.90;;;;;;4990174;28;20679;-63
2022/04/15 08:50:54;;;;;;;22.57;10.60;;;8.00;99.90;;;;;;4991224;28;20586;-63
2022/04/15 08:53:22;;;;;;;42.70;26.70;;;8.10;99.90;;;;;;5007306;28;20584;-63
2022/04/15 08:55:49;;;;;;;24.83;12.80;;;8.20;99.90;;;;;;4994716;28;20225;-63
2022/04/15 08:58:17;;;;;;;20.20;11.70;;;8.10;99.90;;;;;;4993924;28;20229;-63
2022/04/15 09:00:44;;;;;;;19.33;10.87;;;8.10;99.90;;;;;;5006660;28;20219;-63
2022/04/15 09:03:11;;;;;;;16.33;9.87;;;8.10;99.90;;;;;;4987299;28;20622;-63
2022/04/15 09:05:38;;;;;;;17.57;9.93;;;8.20;99.90;;;;;;5003524;28;20204;-62
2022/04/15 09:08:06;;;;;;;22.70;11.03;;;8.20;99.90;;;;;;4981552;28;20206;-63
2022/04/15 09:10:36;;;;;;;19.80;11.03;;;8.40;99.90;;;;;;4998741;28;20209;-63
2022/04/15 09:13:04;;;;;;;21.20;11.67;;;8.30;99.90;;;;;;5000604;28;20316;-62
2022/04/15 09:15:32;;;;;;;26.90;11.80;;;8.30;99.90;;;;;;5014733;28;20205;-63
2022/04/15 09:18:00;;;;;;;22.33;11.23;;;8.30;99.90;;;;;;4980139;28;20226;-63
2022/04/15 09:20:32;;;;;;;19.43;10.47;;;8.30;99.90;;;;;;5004291;28;20208;-62
2022/04/15 09:23:09;;;;;;;23.23;10.77;;;8.30;99.90;;;;;;4986296;28;20229;-63
2022/04/15 09:25:39;;;;;;;19.23;10.63;;;8.30;99.90;;;;;;5005989;28;20234;-63
2022/04/15 09:28:07;;;;;;;21.30;11.10;;;8.40;99.90;;;;;;4986100;28;20239;-64
2022/04/15 09:30:39;;;;;;;23.97;11.60;;;8.30;99.90;;;;;;4999238;28;20261;-63
2022/04/15 09:33:06;;;;;;;16.87;11.03;;;8.30;99.90;;;;;;4998453;28;20231;-63
2022/04/15 09:35:33;;;;;;;24.27;10.70;;;8.30;99.90;;;;;;4995034;28;20334;-63
2022/04/15 09:38:03;;;;;;;19.23;11.00;;;8.40;99.90;;;;;;4998262;28;20246;-64
2022/04/15 09:40:32;;;;;;;20.13;10.70;;;8.50;99.90;;;;;;5011621;28;20228;-63
2022/04/15 09:43:02;;;;;;;20.43;11.33;;;8.50;99.90;;;;;;5021881;28;20190;-64
2022/04/15 09:45:31;;;;;;;18.97;10.87;;;8.50;99.90;;;;;;5013601;28;20246;-63
2022/04/15 09:48:00;;;;;;;17.97;10.57;;;8.50;99.90;;;;;;5008207;28;20221;-63
2022/04/15 09:50:28;;;;;;;20.37;11.13;;;8.60;99.90;;;;;;4986098;28;20202;-63
2022/04/15 09:53:06;;;;;;;20.00;10.53;;;8.60;99.90;;;;;;4992752;28;20240;-64
2022/04/15 09:55:34;;;;;;;18.60;10.50;;;8.60;99.90;;;;;;5005693;28;20285;-63
2022/04/15 09:58:08;;;;;;;17.50;11.23;;;8.60;99.90;;;;;;4988200;28;20284;-63
2022/04/15 10:00:36;;;;;;;20.70;10.93;;;8.60;99.90;;;;;;5005394;28;20221;-63
2022/04/15 10:03:07;;;;;;;19.07;11.03;;;8.50;99.90;;;;;;4995441;28;20206;-63
2022/04/15 10:05:35;;;;;;;20.27;10.10;;;8.50;99.90;;;;;;4997789;28;20206;-63
2022/04/15 10:08:03;;;;;;;17.90;10.20;;;8.60;99.90;;;;;;5006539;28;20198;-63
2022/04/15 10:10:31;;;;;;;15.67;9.53;;;8.70;99.90;;;;;;4980745;28;20231;-63
2022/04/15 10:13:00;;;;;;;14.83;9.47;;;8.70;99.90;;;;;;5001402;28;20804;-63
2022/04/15 10:15:29;;;;;;;17.30;9.33;;;8.70;99.90;;;;;;4998659;28;20210;-63
2022/04/15 10:17:57;;;;;;;19.13;10.30;;;8.70;99.90;;;;;;4996667;28;20226;-63
2022/04/15 10:20:24;;;;;;;15.40;8.57;;;8.60;99.90;;;;;;4996421;28;20238;-64
2022/04/15 10:22:51;;;;;;;19.07;9.07;;;8.60;99.90;;;;;;5002718;28;20271;-64
2022/04/15 10:25:18;;;;;;;19.47;10.50;;;8.60;99.90;;;;;;4980367;28;20217;-63
2022/04/15 10:27:45;;;;;;;14.13;9.70;;;8.60;99.90;;;;;;5012351;28;20203;-63
2022/04/15 10:30:18;;;;;;;16.40;10.70;;;8.70;99.90;;;;;;4984769;28;20741;-64
2022/04/15 10:32:51;;;;;;;18.20;9.70;;;8.70;99.90;;;;;;5085873;22;20226;-48
2022/04/15 10:35:23;;;;;;;20.00;10.83;;;8.70;99.90;;;;;;4992438;28;20321;-48
2022/04/15 10:38:00;;;;;;;18.37;10.57;;;8.80;99.90;;;;;;5013432;28;20564;-46
2022/04/15 10:40:29;;;;;;;17.67;10.47;;;8.80;99.90;;;;;;4985878;28;20221;-52
2022/04/15 10:43:03;;;;;;;16.43;10.50;;;8.70;99.90;;;;;;5022623;28;20403;-46
2022/04/15 10:45:36;;;;;;;16.77;10.53;;;8.80;99.90;;;;;;4984959;28;20232;-51
2022/04/15 10:48:05;;;;;;;15.80;10.53;;;8.80;99.90;;;;;;5023583;28;20234;-43
2022/04/15 10:50:34;;;;;;;17.43;10.27;;;8.90;99.90;;;;;;5005628;28;20345;-47
2022/04/15 10:53:18;;;;;;;17.07;9.93;;;8.90;99.90;;;;;;5014778;28;20206;-44
2022/04/15 10:55:52;;;;;;;17.27;9.27;;;9.00;99.90;;;;;;5000680;28;20404;-47
2022/04/15 10:58:20;;;;;;;13.90;9.67;;;9.00;99.90;;;;;;5011361;28;20222;-48
2022/04/15 11:01:19;;;;;;;14.80;9.30;;;9.10;99.90;;;;;;4995505;28;20220;-48
2022/04/15 11:03:53;;;;;;;15.50;9.93;;;9.10;99.90;;;;;;5011829;28;20193;-45
2022/04/15 11:06:26;;;;;;;18.73;10.03;;;9.10;99.90;;;;;;5009284;28;20598;-48
2022/04/15 11:08:53;;;;;;;14.53;9.83;;;9.00;99.90;;;;;;5020821;28;20221;-46
2022/04/15 11:11:33;;;;;;;13.73;9.30;;;9.00;99.90;;;;;;4999856;28;20215;-49
2022/04/15 11:14:03;;;;;;;15.57;9.70;;;9.10;99.90;;;;;;5005233;28;20516;-48
2022/04/15 11:16:42;;;;;;;13.73;9.67;;;9.20;99.90;;;;;;5002223;28;20233;-51
2022/04/15 11:19:12;;;;;;;16.60;10.13;;;9.20;99.90;;;;;;5019642;28;20330;-48
2022/04/15 11:21:40;;;;;;;16.93;9.17;;;9.10;99.90;;;;;;4988654;28;20841;-48
2022/04/15 11:24:09;;;;;;;15.37;9.50;;;9.20;99.90;;;;;;5018506;28;20214;-43
2022/04/15 11:26:38;;;;;;;13.83;8.53;;;9.20;99.90;;;;;;4992180;28;20237;-47
2022/04/15 11:29:06;;;;;;;11.57;7.57;;;9.20;99.90;;;;;;5011726;28;20233;-48
2022/04/15 11:31:34;;;;;;;11.73;7.53;;;9.10;99.90;;;;;;4991339;28;20261;-49
2022/04/15 11:34:05;;;;;;;12.20;8.37;;;9.20;99.90;;;;;;5004591;28;21710;-45
2022/04/15 11:36:35;;;;;;;12.77;7.97;;;9.20;99.90;;;;;;5006403;28;20770;-49
2022/04/15 11:39:04;;;;;;;12.70;8.07;;;9.20;99.90;;;;;;5016912;28;20301;-44
2022/04/15 11:41:31;;;;;;;11.00;7.87;;;9.20;99.90;;;;;;4985086;28;20993;-51
2022/04/15 11:44:00;;;;;;;9.30;7.07;;;9.20;99.90;;;;;;5009943;28;20213;-46
2022/04/15 11:46:28;;;;;;;13.73;8.33;;;9.20;99.90;;;;;;5010461;28;20465;-45
2022/04/15 11:48:56;;;;;;;14.37;8.80;;;9.20;99.90;;;;;;4988118;28;20408;-45
2022/04/15 11:51:25;;;;;;;12.57;7.93;;;9.20;99.90;;;;;;5016538;28;20253;-45
2022/04/15 11:53:54;;;;;;;14.27;9.07;;;9.20;99.90;;;;;;5003923;28;20502;-46
2022/04/15 11:56:25;;;;;;;12.33;8.73;;;9.30;99.90;;;;;;5014533;28;20253;-45
2022/04/15 11:58:52;;;;;;;11.57;8.93;;;9.40;99.90;;;;;;4990704;28;20233;-46
2022/04/15 12:01:27;;;;;;;13.90;10.77;;;9.40;99.90;;;;;;5004392;28;20213;-45
2022/04/15 12:03:54;;;;;;;15.50;11.27;;;9.50;99.90;;;;;;4996399;28;20513;-45
2022/04/15 12:06:22;;;;;;;14.60;11.30;;;9.60;99.90;;;;;;4997994;28;20230;-46
2022/04/15 12:08:49;;;;;;;15.10;11.93;;;9.60;99.90;;;;;;4994682;28;20199;-46
2022/04/15 12:11:22;;;;;;;12.87;9.47;;;9.70;99.90;;;;;;5015853;28;20202;-45
2022/04/15 12:13:57;;;;;;;16.00;8.93;;;9.70;99.90;;;;;;4989644;28;20596;-48
2022/04/15 12:16:24;;;;;;;11.50;8.50;;;9.70;99.90;;;;;;4995470;28;20233;-45
2022/04/15 12:18:52;;;;;;;15.50;8.60;;;9.70;99.90;;;;;;5002397;28;20209;-48
2022/04/15 12:21:20;;;;;;;20.53;9.40;;;9.60;99.90;;;;;;5017938;28;20229;-49
2022/04/15 12:24:04;;;;;;;12.23;8.73;;;9.70;99.90;;;;;;4996286;28;20276;-48
2022/04/15 12:26:43;;;;;;;16.53;9.93;;;9.70;99.90;;;;;;5016847;28;20294;-47
2022/04/15 12:31:54;;;;;;;12.40;6.90;;;9.70;99.90;;;;;;4981313;28;20221;-48
2022/04/15 12:34:31;;;;;;;12.23;6.77;;;9.70;99.90;;;;;;5002107;28;20626;-47
2022/04/15 12:36:58;;;;;;;10.63;6.30;;;9.80;99.90;;;;;;5008304;28;20229;-48
2022/04/15 12:39:25;;;;;;;16.03;6.90;;;9.90;99.90;;;;;;4982871;28;20975;-48
2022/04/15 12:41:54;;;;;;;8.80;6.97;;;9.90;99.90;;;;;;4994830;28;20221;-48
2022/04/15 12:44:26;;;;;;;12.63;7.70;;;9.90;99.90;;;;;;4984817;28;20467;-47
2022/04/15 12:46:58;;;;;;;12.30;7.07;;;10.00;99.90;;;;;;5005550;28;20340;-48
2022/04/15 12:49:27;;;;;;;21.90;6.70;;;10.00;99.90;;;;;;4988556;28;20275;-47
2022/04/15 12:51:58;;;;;;;8.07;6.30;;;10.10;99.90;;;;;;4983887;28;20444;-48
2022/04/15 12:54:26;;;;;;;6.83;5.50;;;10.10;99.90;;;;;;4992997;28;20217;-48